createdAt,value
2022-11-15T00:00:53.943Z,9.05
2022-11-15T00:03:22.106Z,8.93
2022-11-15T00:05:48.804Z,8.92
2022-11-15T00:08:15.656Z,8.92
2022-11-15T00:10:42.373Z,8.79
2022-11-15T00:13:09.775Z,9.14
2022-11-15T00:15:37.643Z,9.25
2022-11-15T00:18:05.401Z,9.46
2022-11-15T00:20:32.601Z,9.24
2022-11-15T00:22:59.354Z,8.74
2022-11-15T00:25:26.191Z,9.45
2022-11-15T00:27:56.352Z,9.36
2022-11-15T00:30:23.216Z,9.30
2022-11-15T00:32:50.106Z,8.72
2022-11-15T00:35:17.023Z,9.00
2022-11-15T00:37:43.824Z,8.69
2022-11-15T00:40:11.021Z,9.14
2022-11-15T00:42:37.817Z,8.78
2022-11-15T00:45:04.786Z,8.92
2022-11-15T00:47:31.724Z,9.12
2022-11-15T00:49:59.275Z,8.95
2022-11-15T00:52:26.538Z,9.02
2022-11-15T00:54:54.389Z,8.31
2022-11-15T00:57:21.340Z,8.76
2022-11-15T00:59:48.193Z,8.59
2022-11-15T01:02:15.009Z,8.48
2022-11-15T01:04:41.979Z,8.23
2022-11-15T01:07:08.807Z,8.78
2022-11-15T01:09:35.660Z,8.82
2022-11-15T01:12:02.877Z,8.96
2022-11-15T01:14:29.739Z,8.78
2022-11-15T01:16:56.731Z,8.83
2022-11-15T01:19:23.602Z,8.78
2022-11-15T01:21:51.180Z,8.84
2022-11-15T01:24:18.299Z,8.92
2022-11-15T01:26:45.337Z,9.14
2022-11-15T01:29:12.106Z,8.91
2022-11-15T01:31:39.297Z,8.17
2022-11-15T01:34:06.359Z,8.27
2022-11-15T01:36:33.175Z,8.70
2022-11-15T01:39:00.343Z,8.76
2022-11-15T01:41:29.940Z,8.68
2022-11-15T01:44:00.619Z,8.64
2022-11-15T01:46:30.374Z,8.69
2022-11-15T01:48:59.011Z,8.20
2022-11-15T01:51:27.001Z,8.34
2022-11-15T01:53:56.103Z,8.61
2022-11-15T01:56:25.131Z,8.89
2022-11-15T01:58:53.108Z,8.67
2022-11-15T02:01:20.653Z,8.28
2022-11-15T02:03:50.668Z,8.64
2022-11-15T02:06:17.555Z,7.70
2022-11-15T02:08:45.276Z,7.71
2022-11-15T02:11:12.117Z,8.33
2022-11-15T02:13:38.997Z,8.26
2022-11-15T02:16:26.964Z,8.20
2022-11-15T02:18:58.020Z,8.41
2022-11-15T02:21:36.003Z,7.85
2022-11-15T02:24:09.049Z,7.77
2022-11-15T02:26:54.692Z,8.09
2022-11-15T02:29:31.652Z,8.06
2022-11-15T02:32:21.874Z,8.30
2022-11-15T02:34:55.555Z,8.06
2022-11-15T02:37:28.478Z,8.40
2022-11-15T02:40:02.202Z,8.64
2022-11-15T02:42:50.700Z,8.42
2022-11-15T02:45:26.909Z,8.21
2022-11-15T02:47:55.585Z,8.29
2022-11-15T02:50:25.781Z,8.51
2022-11-15T02:52:53.014Z,8.22
2022-11-15T02:55:28.474Z,8.34
2022-11-15T02:58:27.221Z,8.19
2022-11-15T03:01:08.451Z,8.49
2022-11-15T03:03:35.314Z,7.62
2022-11-15T03:06:02.291Z,7.98
2022-11-15T03:08:37.978Z,8.09
2022-11-15T03:11:05.346Z,7.85
2022-11-15T03:13:37.762Z,7.92
2022-11-15T03:16:06.914Z,7.99
2022-11-15T03:18:34.925Z,7.88
2022-11-15T03:21:04.537Z,7.42
2022-11-15T03:23:32.591Z,7.94
2022-11-15T03:26:00.907Z,7.89
2022-11-15T03:28:35.549Z,7.93
2022-11-15T03:31:23.379Z,8.39
2022-11-15T03:33:54.009Z,8.76
2022-11-15T03:36:22.523Z,8.76
2022-11-15T03:38:49.466Z,8.69
2022-11-15T03:41:30.462Z,8.78
2022-11-15T03:44:01.303Z,8.44
2022-11-15T03:46:39.123Z,8.72
2022-11-15T03:49:08.408Z,9.07
2022-11-15T03:51:35.256Z,8.95
2022-11-15T03:54:04.304Z,8.83
2022-11-15T03:56:31.085Z,8.73
2022-11-15T03:58:57.820Z,9.00
2022-11-15T04:01:24.738Z,8.60
2022-11-15T04:03:51.821Z,8.56
2022-11-15T04:06:18.713Z,9.10
2022-11-15T04:08:45.481Z,9.31
2022-11-15T04:11:12.174Z,8.93
2022-11-15T04:13:38.941Z,9.00
2022-11-15T04:16:05.978Z,8.62
2022-11-15T04:18:32.716Z,8.44
2022-11-15T04:21:18.102Z,8.57
2022-11-15T04:24:03.586Z,8.72
2022-11-15T04:26:30.353Z,9.16
2022-11-15T04:29:15.980Z,8.73
2022-11-15T04:31:43.225Z,8.74
2022-11-15T04:34:11.219Z,9.30
2022-11-15T04:36:56.263Z,8.82
2022-11-15T04:39:23.018Z,9.07
2022-11-15T04:41:49.768Z,8.41
2022-11-15T04:44:17.670Z,8.67
2022-11-15T04:46:44.950Z,8.94
2022-11-15T04:49:11.787Z,8.52
2022-11-15T04:51:38.588Z,8.12
2022-11-15T04:54:05.374Z,8.87
2022-11-15T04:56:32.093Z,8.65
2022-11-15T04:58:59.259Z,9.07
2022-11-15T05:01:26.091Z,8.84
2022-11-15T05:04:11.632Z,8.51
2022-11-15T05:06:38.419Z,8.34
2022-11-15T05:09:07.675Z,8.99
2022-11-15T05:11:34.623Z,9.01
2022-11-15T05:14:01.365Z,8.82
2022-11-15T05:16:28.166Z,8.90
2022-11-15T05:18:55.218Z,8.65
2022-11-15T05:21:22.143Z,9.26
2022-11-15T05:23:48.894Z,9.10
2022-11-15T05:26:17.235Z,9.08
2022-11-15T05:28:44.146Z,8.67
2022-11-15T05:31:14.811Z,8.85
2022-11-15T05:33:42.311Z,8.72
2022-11-15T05:36:09.549Z,8.96
2022-11-15T05:38:36.345Z,9.14
2022-11-15T05:41:03.574Z,8.91
2022-11-15T05:43:32.113Z,9.12
2022-11-15T05:46:00.219Z,8.73
2022-11-15T05:48:27.165Z,8.59
2022-11-15T05:50:54.152Z,8.82
2022-11-15T05:53:23.016Z,9.06
2022-11-15T05:55:50.012Z,8.46
2022-11-15T05:58:16.817Z,8.54
2022-11-15T06:00:46.175Z,8.48
2022-11-15T06:03:15.838Z,8.82
2022-11-15T06:05:42.655Z,8.69
2022-11-15T06:08:09.447Z,8.61
2022-11-15T06:10:36.280Z,8.69
2022-11-15T06:13:04.491Z,8.89
2022-11-15T06:15:31.442Z,8.84
2022-11-15T06:18:01.182Z,8.92
2022-11-15T06:20:28.928Z,9.05
2022-11-15T06:25:51.208Z,8.74
2022-11-15T06:28:18.733Z,8.45
2022-11-15T06:30:49.214Z,8.81
2022-11-15T06:33:19.904Z,8.86
2022-11-15T06:35:49.985Z,9.15
2022-11-15T06:38:17.228Z,9.04
2022-11-15T06:40:44.291Z,9.04
2022-11-15T06:43:11.280Z,8.77
2022-11-15T06:45:38.328Z,8.35
2022-11-15T06:48:05.452Z,8.35
2022-11-15T06:50:32.213Z,8.64
2022-11-15T06:53:03.320Z,8.59
2022-11-15T06:55:30.235Z,8.23
2022-11-15T06:57:57.129Z,8.19
2022-11-15T07:00:24.239Z,8.47
2022-11-15T07:02:52.377Z,8.70
2022-11-15T07:05:22.265Z,8.48
2022-11-15T07:07:59.582Z,8.61
2022-11-15T07:10:38.675Z,8.51
2022-11-15T07:13:08.590Z,8.22
2022-11-15T07:15:36.618Z,8.89
2022-11-15T07:18:28.987Z,9.03
2022-11-15T07:21:13.185Z,8.98
2022-11-15T07:26:41.336Z,9.08
2022-11-15T07:29:11.284Z,8.89
2022-11-15T07:31:44.700Z,9.08
2022-11-15T07:34:32.977Z,8.91
2022-11-15T07:37:15.088Z,8.89
2022-11-15T07:39:46.293Z,8.36
2022-11-15T07:42:47.184Z,9.14
2022-11-15T07:45:42.896Z,8.49
2022-11-15T07:54:41.593Z,8.67
2022-11-15T07:59:59.280Z,9.09
2022-11-15T08:02:30.943Z,8.54
2022-11-15T08:04:57.963Z,8.58
2022-11-15T08:07:26.989Z,8.50
2022-11-15T08:09:58.202Z,8.98
2022-11-15T08:12:28.433Z,8.96
2022-11-15T08:14:59.307Z,8.78
2022-11-15T08:17:34.611Z,9.12
2022-11-15T08:20:01.566Z,8.84
2022-11-15T08:22:29.469Z,9.16
2022-11-15T08:24:58.304Z,8.98
2022-11-15T08:27:27.666Z,9.20
2022-11-15T08:29:59.308Z,8.99
2022-11-15T08:32:26.577Z,9.03
2022-11-15T08:34:58.739Z,9.20
2022-11-15T08:37:56.918Z,8.99
2022-11-15T08:40:33.623Z,9.41
2022-11-15T08:43:21.750Z,9.02
2022-11-15T08:46:13.707Z,9.42
2022-11-15T08:48:48.507Z,9.07
2022-11-15T08:51:17.615Z,9.52
2022-11-15T08:53:52.315Z,9.44
2022-11-15T08:56:33.621Z,9.44
2022-11-15T08:59:15.371Z,9.42
2022-11-15T09:27:26.462Z,10.45
2022-11-15T09:30:28.017Z,10.21
2022-11-15T09:33:10.127Z,10.53
2022-11-15T09:35:41.053Z,9.68
2022-11-15T09:38:08.754Z,10.16
2022-11-15T09:40:38.379Z,10.35
2022-11-15T09:43:36.421Z,10.23
2022-11-15T09:46:29.025Z,10.31
2022-11-15T09:48:58.427Z,10.02
2022-11-15T09:51:48.394Z,10.73
2022-11-15T10:00:38.935Z,9.89
2022-11-15T10:03:16.073Z,10.05
2022-11-15T10:05:47.217Z,10.08
2022-11-15T10:08:29.599Z,9.16
2022-11-15T10:11:30.597Z,9.93
2022-11-15T10:13:51.463Z,9.90
2022-11-15T10:16:18.681Z,10.13
2022-11-15T10:19:06.869Z,10.20
2022-11-15T10:21:53.081Z,10.34
2022-11-15T10:24:25.700Z,10.68
2022-11-15T10:26:56.232Z,10.74
2022-11-15T10:29:28.305Z,11.04
2022-11-15T10:31:57.312Z,11.06
2022-11-15T10:34:27.879Z,10.75
2022-11-15T10:37:23.667Z,10.86
2022-11-15T10:40:09.588Z,10.71
2022-11-15T10:42:38.326Z,9.92
2022-11-15T10:45:23.830Z,9.92
2022-11-15T10:47:57.607Z,9.81
2022-11-15T10:50:29.204Z,10.06
2022-11-15T10:53:00.905Z,10.35
2022-11-15T10:55:31.290Z,9.98
2022-11-15T10:58:03.915Z,9.72
2022-11-15T11:00:33.351Z,10.46
2022-11-15T11:03:00.407Z,9.95
2022-11-15T11:05:30.199Z,10.06
2022-11-15T11:08:04.111Z,10.26
2022-11-15T11:13:29.011Z,10.15
2022-11-15T11:16:15.041Z,10.22
2022-11-15T11:18:47.864Z,9.73
2022-11-15T11:21:18.581Z,10.36
2022-11-15T11:24:04.720Z,9.81
2022-11-15T11:26:39.327Z,10.16
2022-11-15T11:29:22.805Z,9.30
2022-11-15T11:31:52.766Z,9.31
2022-11-15T11:34:28.752Z,9.45
2022-11-15T11:36:58.488Z,9.29
2022-11-15T11:39:45.550Z,9.27
2022-11-15T11:42:19.555Z,10.03
2022-11-15T11:44:58.598Z,10.08
2022-11-15T11:47:29.902Z,9.59
2022-11-15T11:50:19.381Z,9.81
2022-11-15T11:53:07.382Z,9.62
2022-11-15T11:55:39.862Z,9.52
2022-11-15T11:58:24.142Z,9.66
2022-11-15T12:01:12.555Z,9.51
2022-11-15T12:03:45.722Z,9.60
2022-11-15T12:06:12.574Z,9.72
2022-11-15T12:09:02.747Z,9.88
2022-11-15T12:11:51.481Z,9.83
2022-11-15T12:20:30.177Z,9.68
2022-11-15T12:23:04.908Z,9.89
2022-11-15T12:25:46.092Z,9.93
2022-11-15T12:28:28.597Z,10.06
2022-11-15T12:31:19.300Z,10.26
2022-11-15T12:33:48.794Z,10.60
2022-11-15T12:36:23.998Z,10.34
2022-11-15T12:39:01.133Z,10.05
2022-11-15T12:41:29.408Z,10.24
2022-11-15T12:43:58.555Z,10.45
2022-11-15T12:46:31.246Z,10.18
2022-11-15T12:49:04.897Z,10.27
2022-11-15T12:51:43.804Z,10.50
2022-11-15T12:57:17.859Z,9.60
2022-11-15T13:00:05.348Z,10.17
2022-11-15T13:02:34.637Z,10.37
2022-11-15T13:05:21.084Z,10.12
2022-11-15T13:07:51.870Z,10.05
2022-11-15T13:10:28.911Z,9.87
2022-11-15T13:12:56.508Z,9.90
2022-11-15T13:15:46.136Z,9.55
2022-11-15T13:18:32.102Z,9.74
2022-11-15T13:21:23.875Z,9.91
2022-11-15T13:23:55.175Z,10.17
2022-11-15T13:26:22.445Z,10.01
2022-11-15T13:28:55.918Z,10.13
2022-11-15T13:31:34.702Z,9.91
2022-11-15T13:34:07.323Z,9.93
2022-11-15T13:36:44.918Z,10.55
2022-11-15T13:39:35.750Z,10.36
2022-11-15T13:42:03.042Z,10.54
2022-11-15T13:44:33.672Z,10.36
2022-11-15T13:47:09.187Z,10.13
2022-11-15T13:49:36.563Z,10.43
2022-11-15T13:52:07.976Z,10.72
2022-11-15T13:54:41.545Z,10.29
2022-11-15T13:57:19.233Z,9.98
2022-11-15T13:59:59.031Z,10.67
2022-11-15T14:02:37.734Z,10.27
2022-11-15T14:05:30.304Z,10.35
2022-11-15T14:08:01.550Z,10.41
2022-11-15T14:10:34.747Z,10.43
2022-11-15T14:13:06.325Z,10.37
2022-11-15T14:15:34.420Z,10.76
2022-11-15T14:18:04.069Z,10.66
2022-11-15T14:20:41.287Z,10.84
2022-11-15T14:23:39.066Z,10.79
2022-11-15T14:26:14.550Z,10.98
2022-11-15T14:28:57.747Z,10.45
2022-11-15T14:31:28.368Z,10.40
2022-11-15T14:34:07.472Z,10.04
2022-11-15T14:36:42.633Z,10.49
2022-11-15T14:39:12.507Z,10.63
2022-11-15T14:41:41.205Z,10.72
2022-11-15T14:44:14.138Z,11.26
2022-11-15T14:46:43.233Z,11.03
2022-11-15T14:49:10.100Z,10.49
2022-11-15T14:51:39.326Z,10.74
2022-11-15T14:54:12.083Z,11.09
2022-11-15T14:56:48.290Z,11.28
2022-11-15T14:59:23.736Z,10.88
2022-11-15T15:01:56.993Z,11.34
2022-11-15T15:04:28.208Z,11.57
2022-11-15T15:07:07.120Z,11.85
2022-11-15T15:12:23.028Z,11.96
2022-11-15T15:14:58.893Z,12.16
2022-11-15T15:17:29.001Z,12.37
2022-11-15T15:20:13.297Z,12.40
2022-11-15T15:22:40.598Z,12.55
2022-11-15T15:25:44.601Z,12.68
2022-11-15T15:28:11.418Z,12.62
2022-11-15T15:30:38.487Z,12.82
2022-11-15T15:33:05.359Z,12.41
2022-11-15T15:35:33.886Z,12.55
2022-11-15T15:38:01.139Z,12.44
2022-11-15T15:40:29.725Z,12.27
2022-11-15T15:42:56.707Z,12.07
2022-11-15T15:45:23.489Z,12.16
2022-11-15T15:47:56.594Z,11.65
2022-11-15T15:56:41.260Z,11.77
2022-11-15T15:59:27.987Z,11.50
2022-11-15T16:02:15.430Z,11.18
2022-11-15T16:13:40.313Z,10.71
2022-11-15T16:22:58.070Z,10.74
2022-11-15T16:26:11.565Z,10.50
2022-11-15T16:34:41.100Z,10.36
2022-11-15T16:38:05.125Z,10.67
2022-11-15T16:43:48.358Z,10.08
2022-11-15T16:46:50.959Z,10.33
2022-11-15T17:04:45.179Z,10.80
2022-11-15T17:07:36.014Z,10.76
2022-11-15T17:13:10.528Z,11.26
2022-11-15T17:16:08.405Z,10.81
2022-11-15T17:19:13.407Z,11.56
2022-11-15T17:21:47.639Z,10.95
2022-11-15T17:25:07.656Z,10.91
2022-11-15T17:27:53.233Z,10.97
2022-11-15T17:30:22.950Z,11.57
2022-11-15T17:35:58.937Z,11.43
2022-11-15T17:44:31.374Z,10.12
2022-11-15T17:47:13.558Z,10.76
2022-11-15T17:52:38.270Z,10.76
2022-11-15T17:55:15.946Z,11.11
2022-11-15T17:58:18.649Z,10.50
2022-11-15T18:09:47.101Z,10.81
2022-11-15T18:12:21.406Z,10.90
2022-11-15T18:24:21.030Z,10.41
2022-11-15T18:30:32.213Z,10.49
2022-11-15T18:33:13.314Z,10.62
2022-11-15T18:38:53.188Z,10.63
2022-11-15T18:41:46.851Z,10.82
2022-11-15T18:44:25.704Z,10.68
2022-11-15T18:47:26.613Z,11.18
2022-11-15T18:53:18.349Z,11.18
2022-11-15T18:55:56.392Z,11.09
2022-11-15T18:59:11.675Z,11.05
2022-11-15T19:01:54.329Z,10.98
2022-11-15T19:10:20.572Z,10.80
2022-11-15T19:16:03.818Z,10.74
2022-11-15T19:30:39.227Z,10.60
2022-11-15T19:47:23.923Z,10.35
2022-11-15T19:50:29.765Z,10.55
2022-11-15T19:56:27.263Z,10.16
2022-11-15T20:02:19.912Z,10.50
2022-11-15T20:20:10.275Z,10.24
2022-11-15T20:23:16.955Z,10.83
2022-11-15T20:29:02.904Z,10.41
2022-11-15T20:37:36.881Z,10.55
2022-11-15T20:40:47.937Z,10.57
2022-11-15T20:43:42.677Z,10.72
2022-11-15T20:46:21.908Z,9.78
2022-11-15T20:57:52.820Z,9.97
2022-11-15T21:03:59.761Z,10.71
2022-11-15T21:10:32.754Z,11.02
2022-11-15T21:16:06.564Z,10.63
2022-11-15T21:21:42.851Z,10.65
2022-11-15T21:24:30.676Z,10.30
2022-11-15T21:30:25.219Z,10.14
2022-11-15T21:33:02.701Z,10.18
2022-11-15T21:35:53.612Z,10.35
2022-11-15T21:41:28.848Z,9.77
2022-11-15T21:44:24.494Z,9.94
2022-11-15T21:47:35.264Z,9.44
2022-11-15T21:59:01.342Z,10.36
2022-11-15T22:02:10.969Z,10.29
2022-11-15T22:04:57.548Z,9.69
2022-11-15T22:07:48.370Z,10.13
2022-11-15T22:10:22.317Z,10.29
2022-11-15T22:19:02.652Z,10.21
2022-11-15T22:21:37.169Z,10.11
2022-11-15T22:36:42.412Z,10.87
2022-11-15T22:42:33.991Z,10.76
2022-11-15T22:45:33.189Z,11.12
2022-11-15T22:54:11.861Z,10.99
2022-11-15T22:57:25.604Z,10.68
2022-11-15T23:03:25.239Z,10.16
2022-11-15T23:14:58.314Z,10.64
2022-11-15T23:17:56.148Z,10.92
2022-11-15T23:21:01.502Z,11.31
2022-11-15T23:23:45.022Z,11.18
2022-11-15T23:26:25.803Z,11.01
2022-11-15T23:29:20.207Z,11.26
2022-11-15T23:38:36.398Z,10.81
2022-11-15T23:41:20.865Z,10.69
2022-11-15T23:44:45.553Z,11.22
2022-11-15T23:47:44.937Z,11.53
2022-11-15T23:50:39.434Z,11.77
2022-11-15T23:53:39.551Z,11.85
2022-11-15T23:59:22.340Z,11.05
